Latest Weather Observations for Double Island Point

IDQ60901

Issued at 10:01 am EST Friday 29 July 2016 (issued every 10 minutes, with the page automatically refreshed every 10 minutes)

About weather observations | Map of Brisbane area stations | Latest observations for Brisbane area | Other Formats
Station Details ID: 040068 Name: DOUBLE ISLAND POINT LIGHTHOUSE Lat: -25.93 Lon: 153.19 Height: 95.64 m
Data from the previous 72 hours. | See also: Recent months at Double Island Point
Date/Time
EST
Temp
°C
App
Temp
°C
Dew
Point
°C
Rel
Hum
%
Delta-T
°C
Wind Press
QNH
hPa
Press
MSL
hPa
Rain since
9am
mm
Dir  Spd
km/h
Gust
km/h
Spd
kts
Gust
kts
29/10:00am 18.2 14.7 12.2 68 3.3 S 22 28 12 15 1023.1 1023.0 0.0
29/09:30am 17.9 13.7 12.4 70 3.1 S 26 32 14 17 1023.1 1023.0 0.0
29/09:00am 17.8 13.2 12.3 70 3.0 S 28 37 15 20 1023.0 1022.9 0.0
29/08:30am 17.5 12.7 11.8 69 3.1 S 28 32 15 17 1022.8 1022.7 0.0
29/08:00am 17.5 13.2 12.2 71 2.9 S 26 30 14 16 1022.7 1022.6 0.0
29/07:30am 17.6 12.6 12.3 71 2.9 S 30 35 16 19 1022.3 1022.2 0.0
29/07:00am 17.4 13.4 11.7 69 3.1 S 24 32 13 17 1022.2 1022.1 0.0
29/06:30am 17.3 13.2 11.3 68 3.3 S 24 32 13 17 1022.2 1022.1 0.0
29/06:00am 17.3 13.3 11.8 70 3.0 S 24 30 13 16 1021.9 1021.8 0.0
29/05:30am 17.5 13.2 12.0 70 3.0 S 26 33 14 18 1021.5 1021.4 0.0
29/05:00am 17.5 13.3 12.4 72 2.8 S 26 32 14 17 1021.3 1021.2 0.0
29/04:30am 17.2 13.3 12.1 72 2.8 S 24 30 13 16 1021.1 1021.0 0.0
29/04:00am 17.1 12.8 12.2 73 2.7 S 26 32 14 17 1020.9 1020.8 0.0
29/03:30am 16.8 12.8 11.7 72 2.8 S 24 28 13 15 1020.9 1020.8 0.0
29/03:00am 16.8 12.7 11.5 71 2.9 S 24 28 13 15 1020.9 1020.8 0.0
29/02:30am 16.6 12.2 11.7 73 2.7 S 26 30 14 16 1021.0 1020.9 0.0
29/02:00am 16.6 12.3 12.0 74 2.5 S 26 30 14 16 1021.1 1021.0 0.0
29/01:30am 16.4 12.4 11.8 74 2.5 S 24 30 13 16 1021.2 1021.1 0.0
29/01:00am 16.5 12.2 11.9 74 2.5 S 26 30 14 16 1021.5 1021.4 0.0
29/12:30am 16.4 11.6 11.8 74 2.5 S 28 30 15 16 1021.6 1021.5 0.0
29/12:00am 16.5 11.8 11.9 74 2.5 S 28 32 15 17 1021.7 1021.6 0.0
 
Date/Time
EST
Temp
°C
App
Temp
°C
Dew
Point
°C
Rel
Hum
%
Delta-T
°C
Wind Press
QNH
hPa
Press
MSL
hPa
Rain since
9am
mm
Dir  Spd
km/h
Gust
km/h
Spd
kts
Gust
kts
28/11:30pm 16.5 11.3 11.6 73 2.7 S 30 33 16 18 1021.8 1021.7 0.0
28/11:00pm 16.5 11.2 11.4 72 2.8 S 30 35 16 19 1022.0 1021.9 0.0
28/10:30pm 16.6 11.3 11.1 70 3.0 S 30 33 16 18 1022.3 1022.2 0.0
28/10:00pm 16.7 11.7 11.0 69 3.1 SSW 28 32 15 17 1022.5 1022.4 0.0
28/09:30pm 16.9 12.4 11.4 70 3.0 S 26 33 14 18 1022.4 1022.3 0.0
28/09:00pm 17.4 13.1 12.1 71 2.9 S 26 33 14 18 1022.6 1022.5 0.0
28/08:30pm 18.4 12.9 12.6 69 3.3 SSE 33 43 18 23 1022.7 1022.6 0.0
28/08:00pm 18.4 13.1 12.6 69 3.2 SSE 32 41 17 22 1022.7 1022.6 0.0
28/07:30pm 18.3 13.3 12.3 68 3.3 SSE 30 39 16 21 1022.7 1022.6 0.0
28/07:00pm 18.3 13.3 12.1 67 3.4 SSE 30 37 16 20 1022.4 1022.3 0.0
28/06:30pm 18.3 13.5 11.8 66 3.6 SSE 28 37 15 20 1022.2 1022.1 0.0
28/06:00pm 18.3 12.7 11.6 65 3.7 SSE 32 37 17 20 1022.1 1022.0 0.0
28/05:30pm 18.1 12.8 11.2 64 3.8 SSE 30 39 16 21 1021.7 1021.6 0.0
28/05:00pm 18.2 12.5 11.0 63 3.9 SSE 32 39 17 21 1021.4 1021.3 0.0
28/04:30pm 18.2 12.5 11.0 63 3.9 SSE 32 39 17 21 1021.3 1021.2 0.0
28/04:00pm 18.2 12.3 10.6 61 4.1 SSE 32 39 17 21 1021.2 1021.1 0.0
28/03:30pm 18.4 12.6 10.8 61 4.1 SSE 32 37 17 20 1021.1 1021.0 0.0
28/03:00pm 18.5 12.5 10.1 58 4.5 SSE 32 39 17 21 1021.0 1020.9 0.0
28/02:30pm 18.4 12.2 10.0 58 4.5 SSE 33 43 18 23 1021.0 1020.9 0.0
28/02:00pm 18.5 12.2 9.6 56 4.7 SSE 33 41 18 22 1021.2 1021.1 0.0
28/01:30pm 18.4 12.0 9.2 55 4.8 SSE 33 43 18 23 1021.3 1021.2 0.0
28/01:00pm 18.4 12.0 8.4 52 5.2 SSE 32 39 17 21 1021.6 1021.5 0.0
28/12:30pm 18.3 11.6 8.0 51 5.3 S 33 44 18 24 1021.9 1021.8 0.0
28/12:00pm 18.0 11.1 7.4 50 5.3 S 33 43 18 23 1022.2 1022.1 0.0
28/11:30am 17.6 10.6 6.8 49 5.4 S 33 43 18 23 1022.6 1022.5 0.0
28/11:00am 17.3 9.7 5.9 47 5.6 S 35 44 19 24 1022.9 1022.8 0.0
28/10:30am 17.1 9.5 5.7 47 5.5 S 35 46 19 25 1023.2 1023.1 0.0
28/10:00am 16.7 8.9 5.0 46 5.6 S 35 44 19 24 1023.0 1022.9 0.0
28/09:30am 16.6 8.5 5.3 47 5.4 S 37 48 20 26 1023.1 1023.0 0.0
28/09:00am 16.3 7.7 4.7 46 5.5 S 39 48 21 26 1022.8 1022.7 0.0
28/08:30am 16.1 7.5 4.8 47 5.4 S 39 46 21 25 1022.7 1022.6 0.0
28/08:00am 15.9 8.8 5.5 50 5.0 S 32 41 17 22 1022.6 1022.5 0.0
28/07:30am 14.8 8.6 4.2 49 4.9 S 26 33 14 18 1022.2 1022.1 0.0
28/07:00am 13.9 7.1 3.1 48 4.8 SSW 28 33 15 18 1021.9 1021.8 0.0
28/06:30am 14.2 7.6 4.2 51 4.6 S 28 37 15 20 1021.6 1021.5 0.0
28/06:00am 14.5 8.1 5.0 53 4.5 S 28 37 15 20 1021.2 1021.1 0.0
28/05:30am 14.1 7.0 3.8 50 4.7 S 30 37 16 20 1020.8 1020.7 0.0
28/05:00am 14.0 6.5 3.2 48 4.8 SSW 32 35 17 19 1020.8 1020.7 0.0
28/04:30am 14.3 6.6 2.2 44 5.4 SSW 32 41 17 22 1020.7 1020.6 0.0
28/04:00am 14.9 7.9 1.8 41 5.8 SSW 28 41 15 22 1020.7 1020.6 0.0
28/03:30am 15.3 7.6 2.1 41 5.9 SSW 32 43 17 23 1020.9 1020.8 0.0
28/03:00am 15.6 7.3 2.1 40 6.0 SSW 35 46 19 25 1020.9 1020.8 0.0
28/02:30am 15.7 8.4 2.2 40 6.0 SSW 30 43 16 23 1021.2 1021.1 0.0
28/02:00am 15.6 8.6 2.1 40 6.0 SSW 28 35 15 19 1021.3 1021.2 0.0
28/01:30am 15.7 8.7 2.2 40 6.0 SSW 28 33 15 18 1021.3 1021.2 0.0
28/01:00am 15.9 9.0 2.3 40 6.1 SSW 28 33 15 18 1021.5 1021.4 0.0
28/12:30am 15.6 9.8 2.1 40 6.0 SSW 22 28 12 15 1021.6 1021.5 0.0
28/12:00am 15.9 10.1 2.3 40 6.1 SSW 22 26 12 14 1021.4 1021.3 0.0
 
Date/Time
EST
Temp
°C
App
Temp
°C
Dew
Point
°C
Rel
Hum
%
Delta-T
°C
Wind Press
QNH
hPa
Press
MSL
hPa
Rain since
9am
mm
Dir  Spd
km/h
Gust
km/h
Spd
kts
Gust
kts
27/11:30pm 16.0 10.2 2.4 40 6.1 SSW 22 28 12 15 1021.4 1021.3 0.0
27/11:00pm 16.3 10.9 2.3 39 6.3 SW 20 28 11 15 1021.3 1021.2 0.0
27/10:30pm 16.5 11.5 4.5 45 5.7 WSW 20 22 11 12 1021.2 1021.1 0.0
27/10:00pm 16.7 12.2 4.1 43 5.9 WSW 17 19 9 10 1021.1 1021.0 0.0
27/09:30pm 17.1 10.9 2.3 37 6.7 SW 24 30 13 16 1020.7 1020.6 0.0
27/09:00pm 17.3 10.5 2.9 38 6.6 SW 28 32 15 17 1020.2 1020.1 0.0
27/08:30pm 17.1 11.8 5.1 45 5.8 SW 22 24 12 13 1020.1 1020.0 0.0
27/08:00pm 17.4 13.6 5.7 46 5.7 WSW 15 19 8 10 1019.9 1019.8 0.0
27/07:30pm 17.2 14.0 6.7 50 5.2 W 13 17 7 9 1019.5 1019.4 0.0
27/07:00pm 17.2 14.5 7.3 52 5.0 W 11 15 6 8 1019.1 1018.9 0.0
27/06:30pm 17.4 14.3 5.7 46 5.7 WSW 11 13 6 7 1018.7 1018.5 0.0
27/06:00pm 17.4 14.7 5.4 45 5.8 SW 9 13 5 7 1018.4 1018.2 0.0
27/05:30pm 17.2 14.5 5.5 46 5.7 SW 9 9 5 5 1018.4 1018.2 0.0
27/05:00pm 17.4 14.0 6.0 47 5.6 SSW 13 15 7 8 1018.0 1017.8 0.0
27/04:30pm 17.7 13.7 6.6 48 5.5 SSW 17 20 9 11 1017.5 1017.3 0.0
27/04:00pm 18.1 13.6 6.3 46 5.8 S 19 22 10 12 1017.1 1016.9 0.0
27/03:30pm 18.5 13.9 6.7 46 5.9 SSW 20 24 11 13 1016.9 1016.7 0.0
27/03:00pm 18.6 14.9 6.4 45 6.1 SSW 15 19 8 10 1016.9 1016.7 0.0
27/02:30pm 19.5 15.9 6.9 44 6.4 SSW 15 22 8 12 1017.1 1016.9 0.0
27/02:00pm 20.1 16.8 6.5 41 6.9 SW 13 19 7 10 1017.2 1017.0 0.0
27/01:30pm 19.9 15.8 7.9 46 6.2 S 19 24 10 13 1017.4 1017.2 0.0
27/01:00pm 20.4 16.9 7.1 42 6.8 SSE 15 19 8 10 1017.3 1017.1 0.0
27/12:30pm 20.5 17.6 6.5 40 7.1 SE 11 13 6 7 1017.8 1017.6 0.0
27/12:00pm 20.2 17.2 6.2 40 7.0 S 11 17 6 9 1018.2 1018.0 0.0
27/11:30am 20.7 17.4 6.3 39 7.3 SW 13 20 7 11 1018.7 1018.5 0.0
27/11:00am 20.2 16.2 5.1 37 7.4 SW 15 24 8 13 1019.4 1019.3 0.0
27/10:30am 19.5 14.0 4.0 36 7.4 SW 22 32 12 17 1019.3 1019.2 0.0
27/10:00am 19.1 16.1 5.9 42 6.5 WNW 11 17 6 9 1019.5 1019.4 0.0
27/09:30am 18.1 14.8 6.6 47 5.7 NW 13 17 7 9 1019.4 1019.3 0.0
27/09:00am 17.6 14.6 6.2 47 5.6 WNW 11 13 6 7 1019.3 1019.2 0.0
27/08:30am 16.1 11.9 3.9 44 5.7 WSW 15 19 8 10 1019.6 1019.5 0.0
27/08:00am 16.0 11.3 5.3 49 5.1 W 19 26 10 14 1019.1 1018.9 0.0
27/07:30am 15.8 10.3 4.2 46 5.4 W 22 28 12 15 1019.1 1018.9 0.0
27/07:00am 15.5 10.3 3.6 45 5.5 WSW 20 26 11 14 1019.1 1018.9 0.0
27/06:30am 15.0 9.9 3.2 45 5.4 WSW 19 24 10 13 1019.2 1019.0 0.0
27/06:00am 15.6 13.3 4.6 48 5.2 W 6 15 3 8 1018.7 1018.5 0.0
27/05:30am 15.6 10.9 6.1 53 4.6 WNW 20 24 11 13 1018.3 1018.1 0.0
27/05:00am 15.8 11.0 5.7 51 4.9 NW 20 24 11 13 1018.0 1017.8 0.0
27/04:30am 16.0 11.2 4.7 47 5.3 WNW 19 20 10 11 1018.0 1017.8 0.0
27/04:00am 16.3 11.0 3.0 41 6.1 WSW 20 33 11 18 1018.0 1017.8 0.0
27/03:30am 16.9 11.6 2.1 37 6.7 W 19 26 10 14 1018.0 1017.8 0.0
27/03:00am 17.2 12.5 3.1 39 6.5 W 17 26 9 14 1018.2 1018.0 0.0
27/02:30am 16.6 12.6 6.7 52 4.9 WNW 17 20 9 11 1017.8 1017.6 0.0
27/02:00am 16.8 12.9 5.4 47 5.5 NW 15 17 8 9 1017.5 1017.3 0.0
27/01:30am 17.2 13.3 3.5 40 6.4 WNW 13 19 7 10 1018.2 1018.0 0.0
27/01:00am 17.0 12.5 4.0 42 6.1 W 17 22 9 12 1018.2 1018.0 0.0
27/12:30am 17.3 13.1 8.4 56 4.6 WNW 20 24 11 13 1018.3 1018.1 0.0
27/12:00am 17.1 13.9 10.0 63 3.8 WNW 17 22 9 12 1018.4 1018.2 0.0
 
Date/Time
EST
Temp
°C
App
Temp
°C
Dew
Point
°C
Rel
Hum
%
Delta-T
°C
Wind Press
QNH
hPa
Press
MSL
hPa
Rain since
9am
mm
Dir  Spd
km/h
Gust
km/h
Spd
kts
Gust
kts
26/11:30pm 17.9 14.6 11.0 64 3.7 NW 19 22 10 12 1018.3 1018.1 0.0
26/11:00pm 18.2 14.1 8.7 54 4.9 NW 20 24 11 13 1018.2 1018.0 0.0
26/10:30pm 18.1 14.7 9.2 56 4.7 NNW 17 20 9 11 1018.4 1018.2 0.0
26/10:00pm 17.9 14.7 10.0 60 4.2 NNW 17 20 9 11 1018.2 1018.0 0.0
26/09:30pm 17.7 14.8 9.8 60 4.2 NNW 15 20 8 11 1018.4 1018.2 0.0
26/09:00pm 18.2 15.2 10.6 61 4.1 NW 17 20 9 11 1018.6 1018.4 0.0
26/08:30pm 18.2 15.1 9.0 55 4.8 NNW 15 19 8 10 1018.2 1018.0 0.0
26/08:00pm 18.2 17.0 10.3 60 4.2 NNW 7 13 4 7 1018.0 1017.8 0.0
26/07:30pm 18.1 17.0 10.5 61 4.1 NNW 7 13 4 7 1018.1 1017.9 0.0
26/07:00pm 17.9 16.6 9.8 59 4.3 NNW 7 11 4 6 1017.6 1017.4 0.0
26/06:30pm 17.9 16.6 9.8 59 4.3 N 7 11 4 6 1017.2 1017.0 0.0
26/06:00pm 17.9 16.4 9.3 57 4.5 NNW 7 9 4 5 1017.1 1016.9 0.0
26/05:30pm 18.0 16.4 8.6 54 4.9 NNW 7 9 4 5 1017.0 1016.8 0.0
26/05:00pm 19.0 17.6 8.9 52 5.3 NNW 6 9 3 5 1017.1 1016.9 0.0
26/04:30pm 19.0 17.0 8.6 51 5.4 NNE 9 13 5 7 1016.5 1016.3 0.0
26/04:00pm 20.8 19.3 8.4 45 6.5 N 6 9 3 5 1016.6 1016.4 0.0
26/03:30pm 22.1 20.1 8.6 42 7.2 N 9 15 5 8 1016.3 1016.1 0.0
26/03:00pm 22.9 20.9 8.6 40 7.6 N 9 19 5 10 1016.5 1016.3 0.0
26/02:30pm 22.1 19.6 6.7 37 7.9 N 9 15 5 8 1016.9 1016.7 0.0
26/02:00pm 23.3 21.3 8.6 39 7.9 N 9 15 5 8 1016.9 1016.7 0.0
26/01:30pm 22.4 19.7 5.8 34 8.4 NNW 9 15 5 8 1017.5 1017.3 0.0
26/01:00pm 23.0 21.2 7.9 38 8.0 N 7 11 4 6 1017.6 1017.4 0.0
26/12:30pm 21.9 20.3 8.8 43 7.0 N 7 11 4 6 1018.3 1018.1 0.0
26/12:00pm 20.0 18.3 7.4 44 6.4 E 6 9 3 5 1018.9 1018.7 0.0
26/11:30am 18.7 16.3 7.2 47 5.8 SE 9 13 5 7 1019.4 1019.3 0.0
26/11:00am 19.4 17.5 7.5 46 6.1 E 7 9 4 5 1019.3 1019.2 0.0
26/10:30am 19.2 17.7 6.7 44 6.3 E 4 7 2 4 1019.4 1019.3 0.0

Latest Capital City Observations: Canberra | Sydney | Melbourne | Brisbane | Adelaide | Perth | Hobart | Darwin

Other Formats:

Comma delimited format used in spreadsheet applications
http://www.bom.gov.au/fwo/IDQ60901/IDQ60901.94584.axf

JavaScript Object Notation format (JSON) in row-major order
http://www.bom.gov.au/fwo/IDQ60901/IDQ60901.94584.json